Binger, Oklahoma
Current Conditions -  °F | °C
As of 8:35 PM on Tuesday 21 Oct 2014 (Local Time) from KRQO Reporting Station
Clear Clear  
Wind Chill: 64°   Ceiling: Unl
Heat Index: 64°   Visibility: 10mi
Dew Point: 55°   Wind: 9mph
Humidity: 73%   Direction: 150°SSE
Pressure: 30.05"   Gusts: NA
Location:  35.31°N, 98.34°W
Report Text: KRQO 220135Z AUTO 15008KT 10SM CLR 18/13 A3005 RMK AO2
Loading
Personal Weather Stations






























Interactive Weather Map
Tropical Storm Tracking
New forecast layout! Learn more

10-Day Weather Forecast

Advertisements
Track Severe Weather on mobile